sensor_id;sensor_type;location;lat;lon;timestamp;temperature;humidity
37594;DHT22;23441;50.856;6.076;2022-11-21T00:00:19;5.90;99.90
37594;DHT22;23441;50.856;6.076;2022-11-21T00:02:47;5.90;99.90
37594;DHT22;23441;50.856;6.076;2022-11-21T00:05:13;5.90;99.90
37594;DHT22;23441;50.856;6.076;2022-11-21T00:07:39;6.00;99.90
37594;DHT22;23441;50.856;6.076;2022-11-21T00:10:05;6.00;99.90
37594;DHT22;23441;50.856;6.076;2022-11-21T00:12:31;6.00;99.90
37594;DHT22;23441;50.856;6.076;2022-11-21T00:14:57;6.00;99.90
37594;DHT22;23441;50.856;6.076;2022-11-21T00:17:23;6.10;99.90
37594;DHT22;23441;50.856;6.076;2022-11-21T00:19:49;6.00;99.90
37594;DHT22;23441;50.856;6.076;2022-11-21T00:22:14;6.00;99.90
37594;DHT22;23441;50.856;6.076;2022-11-21T00:24:40;6.10;99.90
37594;DHT22;23441;50.856;6.076;2022-11-21T00:27:06;6.10;99.90
37594;DHT22;23441;50.856;6.076;2022-11-21T00:29:31;6.10;99.90
37594;DHT22;23441;50.856;6.076;2022-11-21T00:31:57;6.00;99.90
37594;DHT22;23441;50.856;6.076;2022-11-21T00:34:23;6.00;99.90
37594;DHT22;23441;50.856;6.076;2022-11-21T00:36:49;6.00;99.90
37594;DHT22;23441;50.856;6.076;2022-11-21T00:39:14;6.00;99.90
37594;DHT22;23441;50.856;6.076;2022-11-21T00:41:40;6.00;99.90
37594;DHT22;23441;50.856;6.076;2022-11-21T00:44:06;6.00;99.90
37594;DHT22;23441;50.856;6.076;2022-11-21T00:46:32;6.00;99.90
37594;DHT22;23441;50.856;6.076;2022-11-21T00:48:58;6.10;99.90
37594;DHT22;23441;50.856;6.076;2022-11-21T00:51:23;6.10;99.90
37594;DHT22;23441;50.856;6.076;2022-11-21T00:53:49;6.10;99.90
37594;DHT22;23441;50.856;6.076;2022-11-21T00:56:15;6.20;99.90
37594;DHT22;23441;50.856;6.076;2022-11-21T00:58:41;6.10;99.90
37594;DHT22;23441;50.856;6.076;2022-11-21T01:01:12;6.20;99.90
37594;DHT22;23441;50.856;6.076;2022-11-21T01:03:39;6.10;99.90
37594;DHT22;23441;50.856;6.076;2022-11-21T01:06:10;6.10;99.90
37594;DHT22;23441;50.856;6.076;2022-11-21T01:08:39;6.10;99.90
37594;DHT22;23441;50.856;6.076;2022-11-21T01:11:08;6.00;99.90
37594;DHT22;23441;50.856;6.076;2022-11-21T01:13:34;5.90;99.90
37594;DHT22;23441;50.856;6.076;2022-11-21T01:16:04;5.80;99.90
37594;DHT22;23441;50.856;6.076;2022-11-21T01:18:30;5.70;99.90
37594;DHT22;23441;50.856;6.076;2022-11-21T01:23:38;5.70;99.90
37594;DHT22;23441;50.856;6.076;2022-11-21T01:26:06;5.70;99.90
37594;DHT22;23441;50.856;6.076;2022-11-21T01:28:32;5.70;99.90
37594;DHT22;23441;50.856;6.076;2022-11-21T01:31:06;5.60;99.90
37594;DHT22;23441;50.856;6.076;2022-11-21T01:33:33;5.50;99.90
37594;DHT22;23441;50.856;6.076;2022-11-21T01:36:26;5.50;99.90
37594;DHT22;23441;50.856;6.076;2022-11-21T01:38:53;5.40;99.90
37594;DHT22;23441;50.856;6.076;2022-11-21T01:41:25;5.40;99.90
37594;DHT22;23441;50.856;6.076;2022-11-21T01:43:53;5.40;99.90
37594;DHT22;23441;50.856;6.076;2022-11-21T01:46:20;5.40;99.90
37594;DHT22;23441;50.856;6.076;2022-11-21T01:49:03;5.40;99.90
37594;DHT22;23441;50.856;6.076;2022-11-21T01:51:54;5.40;99.90
37594;DHT22;23441;50.856;6.076;2022-11-21T01:54:53;5.50;99.90
37594;DHT22;23441;50.856;6.076;2022-11-21T01:57:26;5.40;99.90
37594;DHT22;23441;50.856;6.076;2022-11-21T01:59:59;5.50;99.90
37594;DHT22;23441;50.856;6.076;2022-11-21T02:02:30;5.50;99.90
37594;DHT22;23441;50.856;6.076;2022-11-21T02:04:59;5.40;99.90
37594;DHT22;23441;50.856;6.076;2022-11-21T02:07:27;5.50;99.90
37594;DHT22;23441;50.856;6.076;2022-11-21T02:09:57;5.50;99.90
37594;DHT22;23441;50.856;6.076;2022-11-21T02:12:42;5.50;99.90
37594;DHT22;23441;50.856;6.076;2022-11-21T02:15:10;5.40;99.90
37594;DHT22;23441;50.856;6.076;2022-11-21T02:17:36;5.40;99.90
37594;DHT22;23441;50.856;6.076;2022-11-21T02:20:05;5.40;99.90
37594;DHT22;23441;50.856;6.076;2022-11-21T02:25:13;5.40;99.90
37594;DHT22;23441;50.856;6.076;2022-11-21T02:27:40;5.40;99.90
37594;DHT22;23441;50.856;6.076;2022-11-21T02:30:08;5.40;99.90
37594;DHT22;23441;50.856;6.076;2022-11-21T02:32:37;5.50;99.90
37594;DHT22;23441;50.856;6.076;2022-11-21T02:35:04;5.50;99.90
37594;DHT22;23441;50.856;6.076;2022-11-21T02:37:31;5.50;99.90
37594;DHT22;23441;50.856;6.076;2022-11-21T02:40:00;5.60;99.90
37594;DHT22;23441;50.856;6.076;2022-11-21T02:42:35;5.50;99.90
37594;DHT22;23441;50.856;6.076;2022-11-21T02:45:06;5.60;99.90
37594;DHT22;23441;50.856;6.076;2022-11-21T02:47:35;5.60;99.90
37594;DHT22;23441;50.856;6.076;2022-11-21T02:52:35;5.70;99.90
37594;DHT22;23441;50.856;6.076;2022-11-21T02:55:01;5.70;99.90
37594;DHT22;23441;50.856;6.076;2022-11-21T02:57:27;5.70;99.90
37594;DHT22;23441;50.856;6.076;2022-11-21T02:59:52;5.70;99.90
37594;DHT22;23441;50.856;6.076;2022-11-21T03:02:18;5.70;99.90
37594;DHT22;23441;50.856;6.076;2022-11-21T03:04:44;5.70;99.90
37594;DHT22;23441;50.856;6.076;2022-11-21T03:07:10;5.70;99.90
37594;DHT22;23441;50.856;6.076;2022-11-21T03:09:36;5.70;99.90
37594;DHT22;23441;50.856;6.076;2022-11-21T03:12:06;5.70;99.90
37594;DHT22;23441;50.856;6.076;2022-11-21T03:14:33;5.70;99.90
37594;DHT22;23441;50.856;6.076;2022-11-21T03:16:59;5.70;99.90
37594;DHT22;23441;50.856;6.076;2022-11-21T03:19:25;5.80;99.90
37594;DHT22;23441;50.856;6.076;2022-11-21T03:21:50;5.80;99.90
37594;DHT22;23441;50.856;6.076;2022-11-21T03:24:16;5.80;99.90
37594;DHT22;23441;50.856;6.076;2022-11-21T03:26:42;5.90;99.90
37594;DHT22;23441;50.856;6.076;2022-11-21T03:29:08;5.90;99.90
37594;DHT22;23441;50.856;6.076;2022-11-21T03:31:34;5.90;99.90
37594;DHT22;23441;50.856;6.076;2022-11-21T03:34:00;5.80;99.90
37594;DHT22;23441;50.856;6.076;2022-11-21T03:36:26;5.80;99.90
37594;DHT22;23441;50.856;6.076;2022-11-21T03:38:54;5.80;99.90
37594;DHT22;23441;50.856;6.076;2022-11-21T03:41:22;5.80;99.90
37594;DHT22;23441;50.856;6.076;2022-11-21T03:44:07;5.80;99.90
37594;DHT22;23441;50.856;6.076;2022-11-21T03:46:36;5.80;99.90
37594;DHT22;23441;50.856;6.076;2022-11-21T03:49:02;5.90;99.90
37594;DHT22;23441;50.856;6.076;2022-11-21T03:51:29;5.90;99.90
37594;DHT22;23441;50.856;6.076;2022-11-21T03:53:55;5.90;99.90
37594;DHT22;23441;50.856;6.076;2022-11-21T03:56:21;6.00;99.90
37594;DHT22;23441;50.856;6.076;2022-11-21T03:58:47;6.00;99.90
37594;DHT22;23441;50.856;6.076;2022-11-21T04:01:13;6.00;99.90
37594;DHT22;23441;50.856;6.076;2022-11-21T04:03:43;6.00;99.90
37594;DHT22;23441;50.856;6.076;2022-11-21T04:06:14;6.00;99.90
37594;DHT22;23441;50.856;6.076;2022-11-21T04:08:40;6.00;99.90
37594;DHT22;23441;50.856;6.076;2022-11-21T04:11:07;6.00;99.90
37594;DHT22;23441;50.856;6.076;2022-11-21T04:13:32;6.00;99.90
37594;DHT22;23441;50.856;6.076;2022-11-21T04:15:58;6.00;99.90
37594;DHT22;23441;50.856;6.076;2022-11-21T04:18:24;6.10;99.90
37594;DHT22;23441;50.856;6.076;2022-11-21T04:20:57;6.00;99.90
37594;DHT22;23441;50.856;6.076;2022-11-21T04:23:24;6.00;99.90
37594;DHT22;23441;50.856;6.076;2022-11-21T04:25:51;6.00;99.90
37594;DHT22;23441;50.856;6.076;2022-11-21T04:28:16;6.00;99.90
37594;DHT22;23441;50.856;6.076;2022-11-21T04:30:42;6.00;99.90
37594;DHT22;23441;50.856;6.076;2022-11-21T04:33:09;5.90;99.90
37594;DHT22;23441;50.856;6.076;2022-11-21T04:35:36;6.00;99.90
37594;DHT22;23441;50.856;6.076;2022-11-21T04:38:02;5.90;99.90
37594;DHT22;23441;50.856;6.076;2022-11-21T04:40:28;5.90;99.90
37594;DHT22;23441;50.856;6.076;2022-11-21T04:42:53;5.90;99.90
37594;DHT22;23441;50.856;6.076;2022-11-21T04:45:19;5.90;99.90
37594;DHT22;23441;50.856;6.076;2022-11-21T04:47:46;5.90;99.90
37594;DHT22;23441;50.856;6.076;2022-11-21T04:50:13;5.90;99.90
37594;DHT22;23441;50.856;6.076;2022-11-21T04:52:40;5.90;99.90
37594;DHT22;23441;50.856;6.076;2022-11-21T04:55:07;5.90;99.90
37594;DHT22;23441;50.856;6.076;2022-11-21T04:57:33;5.90;99.90
37594;DHT22;23441;50.856;6.076;2022-11-21T04:59:59;5.90;99.90
37594;DHT22;23441;50.856;6.076;2022-11-21T05:02:25;5.80;99.90
37594;DHT22;23441;50.856;6.076;2022-11-21T05:04:51;5.80;99.90
37594;DHT22;23441;50.856;6.076;2022-11-21T05:07:17;5.80;99.90
37594;DHT22;23441;50.856;6.076;2022-11-21T05:09:43;5.80;99.90
37594;DHT22;23441;50.856;6.076;2022-11-21T05:12:09;5.80;99.90
37594;DHT22;23441;50.856;6.076;2022-11-21T05:14:54;5.70;99.90
37594;DHT22;23441;50.856;6.076;2022-11-21T05:17:20;5.70;99.90
37594;DHT22;23441;50.856;6.076;2022-11-21T05:19:46;5.70;99.90
37594;DHT22;23441;50.856;6.076;2022-11-21T05:22:12;5.70;99.90
37594;DHT22;23441;50.856;6.076;2022-11-21T05:24:38;5.70;99.90
37594;DHT22;23441;50.856;6.076;2022-11-21T05:27:04;5.80;99.90
37594;DHT22;23441;50.856;6.076;2022-11-21T05:29:30;5.70;99.90
37594;DHT22;23441;50.856;6.076;2022-11-21T05:31:56;5.70;99.90
37594;DHT22;23441;50.856;6.076;2022-11-21T05:34:22;5.70;99.90
37594;DHT22;23441;50.856;6.076;2022-11-21T05:36:48;5.70;99.90
37594;DHT22;23441;50.856;6.076;2022-11-21T05:39:14;5.70;99.90
37594;DHT22;23441;50.856;6.076;2022-11-21T05:41:40;5.70;99.90
37594;DHT22;23441;50.856;6.076;2022-11-21T05:44:06;5.70;99.90
37594;DHT22;23441;50.856;6.076;2022-11-21T05:46:32;5.60;99.90
37594;DHT22;23441;50.856;6.076;2022-11-21T05:48:58;5.60;99.90
37594;DHT22;23441;50.856;6.076;2022-11-21T05:51:24;5.60;99.90
37594;DHT22;23441;50.856;6.076;2022-11-21T05:53:50;5.70;99.90
37594;DHT22;23441;50.856;6.076;2022-11-21T05:56:17;5.70;99.90
37594;DHT22;23441;50.856;6.076;2022-11-21T05:58:43;5.60;99.90
37594;DHT22;23441;50.856;6.076;2022-11-21T06:01:11;5.70;99.90
37594;DHT22;23441;50.856;6.076;2022-11-21T06:03:38;5.70;99.90
37594;DHT22;23441;50.856;6.076;2022-11-21T06:06:10;5.70;99.90
37594;DHT22;23441;50.856;6.076;2022-11-21T06:08:43;5.70;99.90
37594;DHT22;23441;50.856;6.076;2022-11-21T06:11:11;5.70;99.90
37594;DHT22;23441;50.856;6.076;2022-11-21T06:13:38;5.70;99.90
37594;DHT22;23441;50.856;6.076;2022-11-21T06:16:09;5.60;99.90
37594;DHT22;23441;50.856;6.076;2022-11-21T06:18:46;5.60;99.90
37594;DHT22;23441;50.856;6.076;2022-11-21T06:21:17;5.60;99.90
37594;DHT22;23441;50.856;6.076;2022-11-21T06:23:44;5.60;99.90
37594;DHT22;23441;50.856;6.076;2022-11-21T06:26:13;5.60;99.90
37594;DHT22;23441;50.856;6.076;2022-11-21T06:28:41;5.60;99.90
37594;DHT22;23441;50.856;6.076;2022-11-21T06:31:09;5.60;99.90
37594;DHT22;23441;50.856;6.076;2022-11-21T06:33:36;5.60;99.90
37594;DHT22;23441;50.856;6.076;2022-11-21T06:36:07;5.60;99.90
37594;DHT22;23441;50.856;6.076;2022-11-21T06:38:34;5.70;99.90
37594;DHT22;23441;50.856;6.076;2022-11-21T06:41:10;5.70;99.90
37594;DHT22;23441;50.856;6.076;2022-11-21T06:43:36;5.70;99.90
37594;DHT22;23441;50.856;6.076;2022-11-21T06:46:02;5.70;99.90
37594;DHT22;23441;50.856;6.076;2022-11-21T06:48:32;5.70;99.90
37594;DHT22;23441;50.856;6.076;2022-11-21T06:53:33;5.80;99.90
37594;DHT22;23441;50.856;6.076;2022-11-21T06:56:01;5.70;99.90
37594;DHT22;23441;50.856;6.076;2022-11-21T06:58:27;5.70;99.90
37594;DHT22;23441;50.856;6.076;2022-11-21T07:00:54;5.70;99.90
37594;DHT22;23441;50.856;6.076;2022-11-21T07:03:20;5.70;99.90
37594;DHT22;23441;50.856;6.076;2022-11-21T07:05:47;5.70;99.90
37594;DHT22;23441;50.856;6.076;2022-11-21T07:08:13;5.70;99.90
37594;DHT22;23441;50.856;6.076;2022-11-21T07:10:39;5.70;99.90
37594;DHT22;23441;50.856;6.076;2022-11-21T07:13:05;5.70;99.90
37594;DHT22;23441;50.856;6.076;2022-11-21T07:15:49;5.70;99.90
37594;DHT22;23441;50.856;6.076;2022-11-21T07:18:16;5.70;99.90
37594;DHT22;23441;50.856;6.076;2022-11-21T07:20:42;5.80;99.90
37594;DHT22;23441;50.856;6.076;2022-11-21T07:23:07;5.70;99.90
37594;DHT22;23441;50.856;6.076;2022-11-21T07:25:34;5.70;99.90
37594;DHT22;23441;50.856;6.076;2022-11-21T07:28:01;5.70;99.90
37594;DHT22;23441;50.856;6.076;2022-11-21T07:30:27;5.80;99.90
37594;DHT22;23441;50.856;6.076;2022-11-21T07:33:00;5.80;99.90
37594;DHT22;23441;50.856;6.076;2022-11-21T07:35:27;5.80;99.90
37594;DHT22;23441;50.856;6.076;2022-11-21T07:37:53;5.90;99.90
37594;DHT22;23441;50.856;6.076;2022-11-21T07:40:19;5.90;99.90
37594;DHT22;23441;50.856;6.076;2022-11-21T07:42:46;5.90;99.90
37594;DHT22;23441;50.856;6.076;2022-11-21T07:45:12;5.90;99.90
37594;DHT22;23441;50.856;6.076;2022-11-21T07:47:39;5.90;99.90
37594;DHT22;23441;50.856;6.076;2022-11-21T07:50:06;5.90;99.90
37594;DHT22;23441;50.856;6.076;2022-11-21T07:52:33;5.90;99.90
37594;DHT22;23441;50.856;6.076;2022-11-21T07:54:59;6.00;99.90
37594;DHT22;23441;50.856;6.076;2022-11-21T07:57:27;5.90;99.90
37594;DHT22;23441;50.856;6.076;2022-11-21T07:59:54;6.00;99.90
37594;DHT22;23441;50.856;6.076;2022-11-21T08:02:26;6.00;99.90
37594;DHT22;23441;50.856;6.076;2022-11-21T08:04:53;6.10;99.90
37594;DHT22;23441;50.856;6.076;2022-11-21T08:07:20;6.10;99.90
37594;DHT22;23441;50.856;6.076;2022-11-21T08:09:46;6.10;99.90
37594;DHT22;23441;50.856;6.076;2022-11-21T08:12:13;6.10;99.90
37594;DHT22;23441;50.856;6.076;2022-11-21T08:14:39;6.20;99.90
37594;DHT22;23441;50.856;6.076;2022-11-21T08:17:05;6.20;99.90
37594;DHT22;23441;50.856;6.076;2022-11-21T08:19:31;6.10;99.90
37594;DHT22;23441;50.856;6.076;2022-11-21T08:21:57;6.00;99.90
37594;DHT22;23441;50.856;6.076;2022-11-21T08:24:23;6.00;99.90
37594;DHT22;23441;50.856;6.076;2022-11-21T08:26:49;6.10;99.90
37594;DHT22;23441;50.856;6.076;2022-11-21T08:29:15;6.10;99.90
37594;DHT22;23441;50.856;6.076;2022-11-21T08:31:42;6.00;99.90
37594;DHT22;23441;50.856;6.076;2022-11-21T08:34:09;6.10;99.90
37594;DHT22;23441;50.856;6.076;2022-11-21T08:36:35;6.10;99.90
37594;DHT22;23441;50.856;6.076;2022-11-21T08:39:02;6.20;99.90
37594;DHT22;23441;50.856;6.076;2022-11-21T08:41:27;6.30;99.90
37594;DHT22;23441;50.856;6.076;2022-11-21T08:44:11;6.40;99.90
37594;DHT22;23441;50.856;6.076;2022-11-21T08:46:38;6.40;99.90
37594;DHT22;23441;50.856;6.076;2022-11-21T08:49:07;6.50;99.90
37594;DHT22;23441;50.856;6.076;2022-11-21T08:51:34;6.40;99.90
37594;DHT22;23441;50.856;6.076;2022-11-21T08:54:00;6.40;99.90
37594;DHT22;23441;50.856;6.076;2022-11-21T08:56:26;6.30;99.90
37594;DHT22;23441;50.856;6.076;2022-11-21T08:58:52;6.30;99.90
37594;DHT22;23441;50.856;6.076;2022-11-21T09:01:19;6.20;99.90
37594;DHT22;23441;50.856;6.076;2022-11-21T09:03:45;6.20;99.90
37594;DHT22;23441;50.856;6.076;2022-11-21T09:06:10;6.20;99.90
37594;DHT22;23441;50.856;6.076;2022-11-21T09:08:38;6.20;99.90
37594;DHT22;23441;50.856;6.076;2022-11-21T09:11:08;6.30;99.90
37594;DHT22;23441;50.856;6.076;2022-11-21T09:13:34;6.50;99.90
37594;DHT22;23441;50.856;6.076;2022-11-21T09:16:01;6.60;99.90
37594;DHT22;23441;50.856;6.076;2022-11-21T09:18:46;6.70;99.90
37594;DHT22;23441;50.856;6.076;2022-11-21T09:21:16;6.70;99.90
37594;DHT22;23441;50.856;6.076;2022-11-21T09:23:42;6.60;99.90
37594;DHT22;23441;50.856;6.076;2022-11-21T09:26:08;6.60;99.90
37594;DHT22;23441;50.856;6.076;2022-11-21T09:28:34;6.60;99.90
37594;DHT22;23441;50.856;6.076;2022-11-21T09:31:04;6.50;99.90
37594;DHT22;23441;50.856;6.076;2022-11-21T09:33:30;6.60;99.90
37594;DHT22;23441;50.856;6.076;2022-11-21T09:36:00;6.60;99.90
37594;DHT22;23441;50.856;6.076;2022-11-21T09:38:26;6.50;99.90
37594;DHT22;23441;50.856;6.076;2022-11-21T09:47:03;6.60;99.90
37594;DHT22;23441;50.856;6.076;2022-11-21T09:49:36;6.50;99.90
37594;DHT22;23441;50.856;6.076;2022-11-21T09:52:05;6.50;99.90
37594;DHT22;23441;50.856;6.076;2022-11-21T09:54:33;6.60;99.90
37594;DHT22;23441;50.856;6.076;2022-11-21T09:57:01;6.50;99.90
37594;DHT22;23441;50.856;6.076;2022-11-21T09:59:33;6.50;99.90
37594;DHT22;23441;50.856;6.076;2022-11-21T10:01:59;6.50;99.90
37594;DHT22;23441;50.856;6.076;2022-11-21T10:04:26;6.60;99.90
37594;DHT22;23441;50.856;6.076;2022-11-21T10:10:07;6.60;99.90
37594;DHT22;23441;50.856;6.076;2022-11-21T10:15:55;6.70;99.90
37594;DHT22;23441;50.856;6.076;2022-11-21T10:29:30;7.00;99.90
37594;DHT22;23441;50.856;6.076;2022-11-21T10:32:10;7.10;99.90
37594;DHT22;23441;50.856;6.076;2022-11-21T10:34:38;7.10;99.90
37594;DHT22;23441;50.856;6.076;2022-11-21T10:37:15;7.20;99.90
37594;DHT22;23441;50.856;6.076;2022-11-21T10:39:48;7.20;99.90
37594;DHT22;23441;50.856;6.076;2022-11-21T10:45:11;7.20;99.90
37594;DHT22;23441;50.856;6.076;2022-11-21T10:47:40;7.20;99.90
37594;DHT22;23441;50.856;6.076;2022-11-21T10:52:44;7.20;99.90
37594;DHT22;23441;50.856;6.076;2022-11-21T10:55:14;7.30;99.90
37594;DHT22;23441;50.856;6.076;2022-11-21T10:57:46;7.40;99.90
37594;DHT22;23441;50.856;6.076;2022-11-21T11:00:15;7.40;99.90
37594;DHT22;23441;50.856;6.076;2022-11-21T11:03:04;7.40;99.90
37594;DHT22;23441;50.856;6.076;2022-11-21T11:05:37;7.40;99.90
37594;DHT22;23441;50.856;6.076;2022-11-21T11:08:11;7.40;99.90
37594;DHT22;23441;50.856;6.076;2022-11-21T11:10:39;7.40;99.90
37594;DHT22;23441;50.856;6.076;2022-11-21T11:13:20;7.30;99.90
37594;DHT22;23441;50.856;6.076;2022-11-21T11:18:24;7.40;99.90
37594;DHT22;23441;50.856;6.076;2022-11-21T11:20:51;7.40;99.90
37594;DHT22;23441;50.856;6.076;2022-11-21T11:25:54;7.80;99.90
37594;DHT22;23441;50.856;6.076;2022-11-21T11:28:20;7.90;99.90
37594;DHT22;23441;50.856;6.076;2022-11-21T11:30:49;8.00;99.90
37594;DHT22;23441;50.856;6.076;2022-11-21T11:33:35;8.20;99.90
37594;DHT22;23441;50.856;6.076;2022-11-21T11:36:30;8.50;99.90
37594;DHT22;23441;50.856;6.076;2022-11-21T11:39:00;8.50;99.90
37594;DHT22;23441;50.856;6.076;2022-11-21T11:48:19;8.40;99.90
37594;DHT22;23441;50.856;6.076;2022-11-21T11:50:52;8.40;99.90
37594;DHT22;23441;50.856;6.076;2022-11-21T11:53:40;8.30;99.90
37594;DHT22;23441;50.856;6.076;2022-11-21T11:56:25;8.20;99.90
37594;DHT22;23441;50.856;6.076;2022-11-21T11:58:56;7.90;99.90
37594;DHT22;23441;50.856;6.076;2022-11-21T12:01:40;7.80;99.90
37594;DHT22;23441;50.856;6.076;2022-11-21T12:04:12;7.70;99.90
37594;DHT22;23441;50.856;6.076;2022-11-21T12:06:52;7.80;99.90
37594;DHT22;23441;50.856;6.076;2022-11-21T12:12:14;7.90;99.90
37594;DHT22;23441;50.856;6.076;2022-11-21T12:20:29;8.30;99.90
37594;DHT22;23441;50.856;6.076;2022-11-21T12:22:57;8.40;99.90
37594;DHT22;23441;50.856;6.076;2022-11-21T12:25:28;8.50;99.90
37594;DHT22;23441;50.856;6.076;2022-11-21T12:27:55;8.50;99.90
37594;DHT22;23441;50.856;6.076;2022-11-21T12:33:20;8.40;99.90
37594;DHT22;23441;50.856;6.076;2022-11-21T12:36:54;8.30;99.90
37594;DHT22;23441;50.856;6.076;2022-11-21T12:41:41;8.40;99.90
37594;DHT22;23441;50.856;6.076;2022-11-21T12:45:01;8.40;99.90
37594;DHT22;23441;50.856;6.076;2022-11-21T12:56:45;8.60;99.90
37594;DHT22;23441;50.856;6.076;2022-11-21T12:59:14;8.60;99.90
37594;DHT22;23441;50.856;6.076;2022-11-21T13:04:19;8.70;99.90
37594;DHT22;23441;50.856;6.076;2022-11-21T13:06:48;8.70;99.90
37594;DHT22;23441;50.856;6.076;2022-11-21T13:09:18;8.80;99.90
37594;DHT22;23441;50.856;6.076;2022-11-21T13:12:08;8.70;99.90
37594;DHT22;23441;50.856;6.076;2022-11-21T13:14:48;8.80;99.90
37594;DHT22;23441;50.856;6.076;2022-11-21T13:22:46;8.90;99.90
37594;DHT22;23441;50.856;6.076;2022-11-21T13:25:38;8.80;99.90
37594;DHT22;23441;50.856;6.076;2022-11-21T13:46:59;8.90;99.90
37594;DHT22;23441;50.856;6.076;2022-11-21T13:52:09;8.90;99.90
37594;DHT22;23441;50.856;6.076;2022-11-21T13:55:07;8.90;99.90
37594;DHT22;23441;50.856;6.076;2022-11-21T14:06:40;8.90;99.90
37594;DHT22;23441;50.856;6.076;2022-11-21T14:12:02;8.90;99.90
37594;DHT22;23441;50.856;6.076;2022-11-21T14:14:35;8.90;99.90
37594;DHT22;23441;50.856;6.076;2022-11-21T14:20:00;8.80;99.90
37594;DHT22;23441;50.856;6.076;2022-11-21T14:25:17;8.60;99.90
37594;DHT22;23441;50.856;6.076;2022-11-21T14:27:46;8.50;99.90
37594;DHT22;23441;50.856;6.076;2022-11-21T14:30:37;8.60;99.90
37594;DHT22;23441;50.856;6.076;2022-11-21T14:33:27;8.60;99.90
37594;DHT22;23441;50.856;6.076;2022-11-21T14:36:18;8.50;99.90
37594;DHT22;23441;50.856;6.076;2022-11-21T14:46:32;8.20;99.90
37594;DHT22;23441;50.856;6.076;2022-11-21T14:51:37;8.10;99.90
37594;DHT22;23441;50.856;6.076;2022-11-21T14:54:12;8.10;99.90
37594;DHT22;23441;50.856;6.076;2022-11-21T14:56:40;8.00;99.90
37594;DHT22;23441;50.856;6.076;2022-11-21T14:59:14;8.00;99.90
37594;DHT22;23441;50.856;6.076;2022-11-21T15:01:58;8.00;99.90
37594;DHT22;23441;50.856;6.076;2022-11-21T15:04:32;7.90;99.90
37594;DHT22;23441;50.856;6.076;2022-11-21T15:06:58;7.90;99.90
37594;DHT22;23441;50.856;6.076;2022-11-21T15:09:25;7.80;99.90
37594;DHT22;23441;50.856;6.076;2022-11-21T15:11:59;7.80;99.90
37594;DHT22;23441;50.856;6.076;2022-11-21T15:14:41;7.80;99.90
37594;DHT22;23441;50.856;6.076;2022-11-21T15:17:16;7.80;99.90
37594;DHT22;23441;50.856;6.076;2022-11-21T15:19:43;7.70;99.90
37594;DHT22;23441;50.856;6.076;2022-11-21T15:22:27;7.70;99.90
37594;DHT22;23441;50.856;6.076;2022-11-21T15:25:13;7.60;99.90
37594;DHT22;23441;50.856;6.076;2022-11-21T15:27:43;7.60;99.90
37594;DHT22;23441;50.856;6.076;2022-11-21T15:35:41;7.70;99.90
37594;DHT22;23441;50.856;6.076;2022-11-21T15:43:39;7.70;99.90
37594;DHT22;23441;50.856;6.076;2022-11-21T15:46:12;7.70;99.90
37594;DHT22;23441;50.856;6.076;2022-11-21T15:48:38;7.60;99.90
37594;DHT22;23441;50.856;6.076;2022-11-21T15:51:04;7.60;99.90
37594;DHT22;23441;50.856;6.076;2022-11-21T15:53:30;7.60;99.90
37594;DHT22;23441;50.856;6.076;2022-11-21T15:55:56;7.60;99.90
37594;DHT22;23441;50.856;6.076;2022-11-21T15:58:21;7.60;99.90
37594;DHT22;23441;50.856;6.076;2022-11-21T16:00:48;7.50;99.90
37594;DHT22;23441;50.856;6.076;2022-11-21T16:03:14;7.50;99.90
37594;DHT22;23441;50.856;6.076;2022-11-21T16:05:40;7.50;99.90
37594;DHT22;23441;50.856;6.076;2022-11-21T16:08:06;7.50;99.90
37594;DHT22;23441;50.856;6.076;2022-11-21T16:10:32;7.50;99.90
37594;DHT22;23441;50.856;6.076;2022-11-21T16:12:57;7.50;99.90
37594;DHT22;23441;50.856;6.076;2022-11-21T16:15:23;7.50;99.90
37594;DHT22;23441;50.856;6.076;2022-11-21T16:17:50;7.50;99.90
37594;DHT22;23441;50.856;6.076;2022-11-21T16:20:16;7.40;99.90
37594;DHT22;23441;50.856;6.076;2022-11-21T16:22:42;7.40;99.90
37594;DHT22;23441;50.856;6.076;2022-11-21T16:25:09;7.40;99.90
37594;DHT22;23441;50.856;6.076;2022-11-21T16:27:35;7.40;99.90
37594;DHT22;23441;50.856;6.076;2022-11-21T16:30:01;7.40;99.90
37594;DHT22;23441;50.856;6.076;2022-11-21T16:32:27;7.40;99.90
37594;DHT22;23441;50.856;6.076;2022-11-21T16:34:53;7.40;99.90
37594;DHT22;23441;50.856;6.076;2022-11-21T16:37:19;7.30;99.90
37594;DHT22;23441;50.856;6.076;2022-11-21T16:39:45;7.30;99.90
37594;DHT22;23441;50.856;6.076;2022-11-21T16:42:17;7.30;99.90
37594;DHT22;23441;50.856;6.076;2022-11-21T16:44:44;7.30;99.90
37594;DHT22;23441;50.856;6.076;2022-11-21T16:47:10;7.20;99.90
37594;DHT22;23441;50.856;6.076;2022-11-21T16:49:37;7.20;99.90
37594;DHT22;23441;50.856;6.076;2022-11-21T16:52:08;7.20;99.90
37594;DHT22;23441;50.856;6.076;2022-11-21T16:54:34;7.20;99.90
37594;DHT22;23441;50.856;6.076;2022-11-21T16:56:59;7.20;99.90
37594;DHT22;23441;50.856;6.076;2022-11-21T16:59:25;7.20;99.90
37594;DHT22;23441;50.856;6.076;2022-11-21T17:01:51;7.30;99.90
37594;DHT22;23441;50.856;6.076;2022-11-21T17:04:17;7.30;99.90
37594;DHT22;23441;50.856;6.076;2022-11-21T17:06:44;7.40;99.90
37594;DHT22;23441;50.856;6.076;2022-11-21T17:09:10;7.40;99.90
37594;DHT22;23441;50.856;6.076;2022-11-21T17:11:36;7.30;99.90
37594;DHT22;23441;50.856;6.076;2022-11-21T17:14:03;7.40;99.90
37594;DHT22;23441;50.856;6.076;2022-11-21T17:16:30;7.30;99.90
37594;DHT22;23441;50.856;6.076;2022-11-21T17:18:58;7.30;99.90
37594;DHT22;23441;50.856;6.076;2022-11-21T17:21:25;7.30;99.90
37594;DHT22;23441;50.856;6.076;2022-11-21T17:23:52;7.30;99.90
37594;DHT22;23441;50.856;6.076;2022-11-21T17:26:20;7.30;99.90
37594;DHT22;23441;50.856;6.076;2022-11-21T17:28:53;7.30;99.90
37594;DHT22;23441;50.856;6.076;2022-11-21T17:31:20;7.30;99.90
37594;DHT22;23441;50.856;6.076;2022-11-21T17:33:46;7.30;99.90
37594;DHT22;23441;50.856;6.076;2022-11-21T17:36:18;7.30;99.90
37594;DHT22;23441;50.856;6.076;2022-11-21T17:38:44;7.20;99.90
37594;DHT22;23441;50.856;6.076;2022-11-21T17:41:14;7.30;99.90
37594;DHT22;23441;50.856;6.076;2022-11-21T17:43:41;7.30;99.90
37594;DHT22;23441;50.856;6.076;2022-11-21T17:46:11;7.30;99.90
37594;DHT22;23441;50.856;6.076;2022-11-21T17:48:38;7.20;99.90
37594;DHT22;23441;50.856;6.076;2022-11-21T17:51:12;7.20;99.90
37594;DHT22;23441;50.856;6.076;2022-11-21T17:53:40;7.20;99.90
37594;DHT22;23441;50.856;6.076;2022-11-21T17:56:10;7.20;99.90
37594;DHT22;23441;50.856;6.076;2022-11-21T17:58:36;7.20;99.90
37594;DHT22;23441;50.856;6.076;2022-11-21T18:01:04;7.20;99.90
37594;DHT22;23441;50.856;6.076;2022-11-21T18:03:30;7.20;99.90
37594;DHT22;23441;50.856;6.076;2022-11-21T18:06:15;7.20;99.90
37594;DHT22;23441;50.856;6.076;2022-11-21T18:08:45;7.10;99.90
37594;DHT22;23441;50.856;6.076;2022-11-21T18:11:13;7.20;99.90
37594;DHT22;23441;50.856;6.076;2022-11-21T18:13:40;7.20;99.90
37594;DHT22;23441;50.856;6.076;2022-11-21T18:16:08;7.20;99.90
37594;DHT22;23441;50.856;6.076;2022-11-21T18:18:35;7.20;99.90
37594;DHT22;23441;50.856;6.076;2022-11-21T18:21:21;7.20;99.90